Shamrock Station, Pennsylvania
Current Conditions -  °F | °C
As of 2:35 PM on Saturday 25 Oct 2014 (Local Time) from KXLL Reporting Station
Scattered Clouds Scattered Clouds  
Wind Chill: 68°   Ceiling: Unl
Heat Index: 68°   Visibility: 10mi
Dew Point: 43°   Wind: 14mph
Humidity: 40%   Direction: 220°SW
Pressure: 29.75"   Gusts: 22mph
Location:  40.4939°N, 75.6842°W
Report Text: KXLL 251835Z AUTO 22012G19KT 10SM SCT050 20/06 A2975 RMK AO2
Loading
Personal Weather Stations






























Interactive Weather Map
Tropical Storm Tracking
New forecast layout! Learn more

10-Day Weather Forecast

Advertisements
Track Severe Weather on mobile